createdAt,value
2019-05-20T00:00:39.073Z,0
2019-05-20T00:01:39.069Z,0
2019-05-20T00:02:39.071Z,0
2019-05-20T00:03:39.057Z,0
2019-05-20T00:04:39.045Z,0
2019-05-20T00:05:39.408Z,0
2019-05-20T00:06:39.039Z,0
2019-05-20T00:13:38.986Z,0
2019-05-20T00:14:38.755Z,0
2019-05-20T00:15:38.972Z,0
2019-05-20T00:16:39.019Z,0
2019-05-20T00:17:38.995Z,0
2019-05-20T00:18:38.956Z,0
2019-05-20T00:19:38.696Z,0
2019-05-20T00:20:38.938Z,0
2019-05-20T00:21:38.937Z,0
2019-05-20T00:22:38.947Z,0
2019-05-20T00:23:38.922Z,0
2019-05-20T00:24:38.675Z,0
2019-05-20T00:25:38.909Z,0
2019-05-20T00:26:38.902Z,0
2019-05-20T00:27:38.913Z,0
2019-05-20T00:28:38.887Z,0
2019-05-20T00:29:38.632Z,0
2019-05-20T00:30:38.874Z,0
2019-05-20T00:48:38.793Z,0
2019-05-20T00:49:38.486Z,0
2019-05-20T00:50:38.731Z,0
2019-05-20T00:51:38.730Z,0
2019-05-20T00:52:38.723Z,0
2019-05-20T00:53:38.693Z,0
2019-05-20T00:54:38.694Z,0
2019-05-20T00:55:38.692Z,0
2019-05-20T00:56:38.676Z,0
2019-05-20T00:57:38.673Z,0
2019-05-20T00:58:38.676Z,0
2019-05-20T00:59:38.428Z,0
2019-05-20T01:00:38.686Z,0
2019-05-20T01:01:38.486Z,0
2019-05-20T01:02:38.627Z,0
2019-05-20T01:03:38.630Z,0
2019-05-20T01:04:38.643Z,0
2019-05-20T01:05:38.625Z,0
2019-05-20T01:06:38.617Z,0
2019-05-20T01:07:38.382Z,0
2019-05-20T01:08:38.585Z,0
2019-05-20T01:09:38.348Z,0
2019-05-20T01:10:38.573Z,0
2019-05-20T01:11:38.576Z,0
2019-05-20T01:12:38.586Z,0
2019-05-20T01:13:38.319Z,0
2019-05-20T01:14:38.633Z,0
2019-05-20T01:15:38.545Z,0
2019-05-20T01:16:38.553Z,0
2019-05-20T01:17:38.532Z,0
2019-05-20T01:18:38.529Z,0
2019-05-20T01:19:38.527Z,0
2019-05-20T01:20:38.512Z,0
2019-05-20T01:21:38.513Z,0
2019-05-20T01:22:38.498Z,0
2019-05-20T01:23:38.501Z,0
2019-05-20T01:24:38.243Z,0
2019-05-20T01:25:38.487Z,0
2019-05-20T01:26:38.476Z,0
2019-05-20T01:27:38.496Z,0
2019-05-20T01:28:38.462Z,0
2019-05-20T01:29:38.462Z,0
2019-05-20T01:30:38.479Z,0
2019-05-20T01:31:38.440Z,0
2019-05-20T01:32:38.219Z,0
2019-05-20T01:33:38.426Z,0
2019-05-20T01:34:38.426Z,0
2019-05-20T01:35:38.432Z,0
2019-05-20T01:36:38.527Z,0
2019-05-20T01:37:38.421Z,0
2019-05-20T01:38:38.403Z,0
2019-05-20T01:39:38.414Z,0
2019-05-20T01:40:38.383Z,0
2019-05-20T01:41:38.391Z,0
2019-05-20T01:42:39.690Z,0
2019-05-20T01:43:38.366Z,0
2019-05-20T01:44:40.661Z,0
2019-05-20T02:07:38.248Z,0
2019-05-20T02:08:37.929Z,0
2019-05-20T02:09:38.175Z,0
2019-05-20T02:10:38.198Z,0
2019-05-20T02:11:37.906Z,0
2019-05-20T02:12:38.135Z,0
2019-05-20T02:13:38.133Z,4
2019-05-20T02:14:37.890Z,4
2019-05-20T02:15:38.114Z,4
2019-05-20T02:16:38.148Z,8
2019-05-20T02:17:38.095Z,4
2019-05-20T02:18:38.099Z,4
2019-05-20T02:19:37.842Z,4
2019-05-20T02:20:38.076Z,4
2019-05-20T02:21:38.101Z,4
2019-05-20T02:22:38.058Z,0
2019-05-20T02:23:38.047Z,4
2019-05-20T02:24:37.807Z,4
2019-05-20T02:25:38.038Z,4
2019-05-20T02:26:38.028Z,4
2019-05-20T02:27:38.022Z,4
2019-05-20T02:28:38.021Z,8
2019-05-20T02:29:37.769Z,8
2019-05-20T02:30:38.029Z,8
2019-05-20T02:31:38.009Z,12
2019-05-20T02:32:38.016Z,12
2019-05-20T02:33:57.903Z,12
2019-05-20T02:34:37.747Z,12
2019-05-20T02:35:37.974Z,16
2019-05-20T02:36:37.982Z,20
2019-05-20T02:37:37.956Z,20
2019-05-20T02:38:37.968Z,20
2019-05-20T02:39:37.726Z,24
2019-05-20T02:40:37.942Z,28
2019-05-20T02:41:37.946Z,32
2019-05-20T02:42:37.985Z,36
2019-05-20T02:43:37.958Z,44
2019-05-20T02:44:37.913Z,48
2019-05-20T02:45:37.910Z,52
2019-05-20T02:46:37.913Z,60
2019-05-20T03:08:37.743Z,432
2019-05-20T03:09:37.482Z,464
2019-05-20T03:10:37.691Z,504
2019-05-20T03:11:37.696Z,544
2019-05-20T03:12:37.713Z,584
2019-05-20T03:13:37.668Z,624
2019-05-20T03:14:38.696Z,672
2019-05-20T03:15:40.206Z,716
2019-05-20T03:16:37.649Z,756
2019-05-20T03:17:37.501Z,808
2019-05-20T03:18:37.632Z,856
2019-05-20T03:19:38.643Z,916
2019-05-20T03:20:37.627Z,972
2019-05-20T03:21:37.598Z,1032
2019-05-20T03:22:37.611Z,1092
2019-05-20T03:23:37.603Z,1152
2019-05-20T03:24:37.333Z,1216
2019-05-20T03:25:37.577Z,1284
2019-05-20T03:26:37.601Z,1356
2019-05-20T03:27:37.676Z,1432
2019-05-20T03:28:37.600Z,1504
2019-05-20T03:29:37.544Z,1584
2019-05-20T03:30:37.579Z,1660
2019-05-20T03:31:37.535Z,1736
2019-05-20T03:32:37.593Z,1804
2019-05-20T03:33:37.554Z,1868
2019-05-20T03:35:06.079Z,1956
2019-05-20T03:35:37.577Z,1992
2019-05-20T03:36:37.503Z,2068
2019-05-20T03:37:37.067Z,2152
2019-05-20T03:38:37.479Z,2220
2019-05-20T03:39:37.239Z,2296
2019-05-20T03:40:37.479Z,2388
2019-05-20T03:41:37.234Z,2472
2019-05-20T03:42:37.459Z,2556
2019-05-20T03:43:37.478Z,2636
2019-05-20T03:44:37.189Z,2776
2019-05-20T03:45:37.447Z,2928
2019-05-20T03:46:37.439Z,3096
2019-05-20T03:47:37.452Z,3272
2019-05-20T03:48:37.410Z,3456
2019-05-20T03:49:37.164Z,3636
2019-05-20T03:50:37.415Z,3792
2019-05-20T03:51:37.421Z,3988
2019-05-20T03:52:37.396Z,3932
2019-05-20T03:53:37.416Z,4104
2019-05-20T03:54:37.131Z,4344
2019-05-20T03:55:37.384Z,4608
2019-05-20T03:56:37.125Z,4812
2019-05-20T03:57:37.374Z,5028
2019-05-20T03:58:37.349Z,5188
2019-05-20T03:59:37.382Z,5304
2019-05-20T04:00:37.349Z,5076
2019-05-20T04:01:37.331Z,5256
2019-05-20T04:02:37.322Z,6284
2019-05-20T04:03:37.340Z,6544
2019-05-20T04:04:37.348Z,6816
2019-05-20T04:05:37.310Z,7124
2019-05-20T04:06:37.329Z,7344
2019-05-20T04:07:37.307Z,6996
2019-05-20T04:08:37.326Z,7272
2019-05-20T04:09:37.292Z,7620
2019-05-20T04:10:37.314Z,7932
2019-05-20T04:11:37.276Z,8168
2019-05-20T04:12:37.289Z,8320
2019-05-20T04:13:41.733Z,8756
2019-05-20T04:14:37.030Z,9044
2019-05-20T04:15:37.279Z,8956
2019-05-20T04:16:37.277Z,8408
2019-05-20T04:17:37.255Z,8108
2019-05-20T04:18:37.272Z,7820
2019-05-20T04:19:37.272Z,7568
2019-05-20T04:20:37.690Z,7636
2019-05-20T04:21:37.246Z,7816
2019-05-20T04:22:37.258Z,8044
2019-05-20T04:23:37.357Z,8044
2019-05-20T04:24:37.261Z,8028
2019-05-20T04:25:37.248Z,8204
2019-05-20T04:26:37.227Z,8048
2019-05-20T04:27:37.242Z,8052
2019-05-20T04:28:37.244Z,7408
2019-05-20T04:29:37.235Z,7732
2019-05-20T04:30:37.321Z,7324
2019-05-20T04:31:37.211Z,7160
2019-05-20T04:32:37.215Z,7312
2019-05-20T04:33:37.208Z,7096
2019-05-20T04:34:36.966Z,7080
2019-05-20T04:35:37.199Z,6832
2019-05-20T04:36:37.218Z,6960
2019-05-20T04:37:38.695Z,6752
2019-05-20T04:38:37.198Z,6684
2019-05-20T04:39:37.192Z,6672
2019-05-20T04:40:37.226Z,6760
2019-05-20T04:41:40.601Z,6984
2019-05-20T04:42:37.290Z,7344
2019-05-20T04:43:37.188Z,7732
2019-05-20T04:44:37.177Z,8400
2019-05-20T04:47:37.180Z,9932
2019-05-20T04:48:37.180Z,10652
2019-05-20T04:49:36.860Z,10712
2019-05-20T04:52:37.158Z,10352
2019-05-20T04:53:37.159Z,10980
2019-05-20T04:54:37.166Z,13476
2019-05-20T04:55:37.149Z,16960
2019-05-20T04:56:37.149Z,16160
2019-05-20T04:57:37.147Z,15104
2019-05-20T04:58:37.162Z,19008
2019-05-20T04:59:37.167Z,16640
2019-05-20T05:00:37.172Z,17952
2019-05-20T05:01:37.127Z,18592
2019-05-20T05:02:37.129Z,17216
2019-05-20T05:03:37.123Z,16512
2019-05-20T05:04:37.133Z,14732
2019-05-20T05:05:45.043Z,15424
2019-05-20T05:06:37.109Z,14912
2019-05-20T05:07:37.099Z,15136
2019-05-20T05:08:37.106Z,13188
2019-05-20T05:09:36.858Z,11152
2019-05-20T05:10:37.098Z,14272
2019-05-20T05:11:37.106Z,11216
2019-05-20T05:12:37.092Z,10132
2019-05-20T05:13:37.100Z,9608
2019-05-20T05:14:37.102Z,8820
2019-05-20T05:15:37.088Z,9156
2019-05-20T05:16:37.096Z,11168
2019-05-20T05:17:37.088Z,15040
2019-05-20T05:18:37.098Z,19456
2019-05-20T05:19:36.839Z,26592
2019-05-20T05:20:37.139Z,28576
2019-05-20T05:21:37.089Z,28512
2019-05-20T05:22:37.088Z,30720
2019-05-20T05:23:39.279Z,32928
2019-05-20T05:24:36.603Z,32096
2019-05-20T05:25:36.831Z,29984
2019-05-20T05:26:37.181Z,29696
2019-05-20T05:27:37.084Z,24416
2019-05-20T05:28:37.085Z,16992
2019-05-20T05:29:37.087Z,13468
2019-05-20T05:30:37.091Z,12864
2019-05-20T05:31:37.086Z,12904
2019-05-20T05:32:37.084Z,13560
2019-05-20T05:33:37.079Z,13512
2019-05-20T05:34:37.093Z,13152
2019-05-20T05:35:50.794Z,13556
2019-05-20T05:36:37.087Z,18272
2019-05-20T05:37:37.087Z,20640
2019-05-20T05:38:37.083Z,25728
2019-05-20T05:39:37.098Z,25728
2019-05-20T05:40:37.136Z,28032
2019-05-20T05:41:37.140Z,25440
2019-05-20T05:42:37.095Z,25824
2019-05-20T05:43:37.101Z,25216
2019-05-20T05:44:37.109Z,24352
2019-05-20T05:45:37.235Z,27104
2019-05-20T05:46:37.098Z,27680
2019-05-20T05:47:37.119Z,30208
2019-05-20T05:48:37.103Z,32576
2019-05-20T05:49:37.103Z,38816
2019-05-20T05:50:37.125Z,46496
2019-05-20T05:51:37.155Z,43136
2019-05-20T05:52:37.111Z,38496
2019-05-20T05:53:37.107Z,39616
2019-05-20T05:54:37.115Z,45120
2019-05-20T05:55:37.162Z,48672
2019-05-20T05:56:36.879Z,41696
2019-05-20T05:57:37.125Z,38624
2019-05-20T05:58:37.161Z,39968
2019-05-20T05:59:37.159Z,47456
2019-05-20T06:00:37.142Z,49536
2019-05-20T06:01:37.146Z,47776
2019-05-20T06:02:36.931Z,45312
2019-05-20T06:03:37.179Z,42848
2019-05-20T06:04:36.916Z,40512
2019-05-20T06:05:38.924Z,41632
2019-05-20T06:06:36.983Z,45664
2019-05-20T06:07:37.190Z,45408
2019-05-20T06:08:37.197Z,39008
2019-05-20T06:09:36.960Z,30976
2019-05-20T06:10:40.364Z,35744
2019-05-20T06:11:37.209Z,41152
2019-05-20T06:12:37.238Z,41280
2019-05-20T06:13:37.226Z,40736
2019-05-20T06:14:37.247Z,40512
2019-05-20T06:15:37.259Z,38944
2019-05-20T06:16:43.872Z,28928
2019-05-20T06:17:37.268Z,28992
2019-05-20T06:18:37.273Z,32928
2019-05-20T06:19:37.034Z,22144
2019-05-20T06:20:37.298Z,19008
2019-05-20T06:21:37.308Z,26560
2019-05-20T06:22:37.347Z,33088
2019-05-20T06:23:37.325Z,31520
2019-05-20T06:24:37.333Z,29504
2019-05-20T06:25:37.141Z,29664
2019-05-20T06:26:37.346Z,32384
2019-05-20T06:27:37.351Z,39808
2019-05-20T06:28:37.369Z,45184
2019-05-20T06:29:37.127Z,37504
2019-05-20T06:30:37.438Z,24608
2019-05-20T06:31:37.411Z,33952
2019-05-20T06:32:37.403Z,29280
2019-05-20T06:33:37.487Z,14236
2019-05-20T06:34:37.436Z,17280
2019-05-20T06:35:37.434Z,37472
2019-05-20T06:36:37.442Z,52192
2019-05-20T06:37:37.464Z,59392
2019-05-20T06:38:37.566Z,64736
2019-05-20T06:39:37.555Z,64512
2019-05-20T06:40:39.168Z,65664
2019-05-20T06:41:37.479Z,64640
2019-05-20T06:42:37.580Z,64256
2019-05-20T06:43:37.501Z,63904
2019-05-20T06:44:57.264Z,66176
2019-05-20T06:45:37.718Z,68192
2019-05-20T06:46:37.632Z,71840
2019-05-20T06:47:37.623Z,73472
2019-05-20T06:48:37.552Z,73248
2019-05-20T06:49:37.313Z,63456
2019-05-20T06:50:38.854Z,58688
2019-05-20T06:51:37.578Z,63424
2019-05-20T06:52:42.940Z,61152
2019-05-20T06:53:37.603Z,62432
2019-05-20T06:54:39.248Z,54880
2019-05-20T06:55:37.635Z,49120
2019-05-20T06:56:37.646Z,45632
2019-05-20T06:57:37.635Z,34208
2019-05-20T06:58:37.660Z,35296
2019-05-20T06:59:37.411Z,56704
2019-05-20T07:00:37.688Z,72736
2019-05-20T07:01:37.692Z,73248
2019-05-20T07:02:37.700Z,69152
2019-05-20T07:03:37.714Z,63360
2019-05-20T07:04:37.229Z,67808
2019-05-20T07:05:37.731Z,65248
2019-05-20T07:06:52.767Z,61728
2019-05-20T07:09:37.284Z,57280
2019-05-20T07:10:41.619Z,61760
2019-05-20T07:11:39.205Z,60128
2019-05-20T07:14:47.135Z,77472
2019-05-20T07:15:56.966Z,83072
2019-05-20T07:16:56.833Z,75104
2019-05-20T07:17:57.003Z,70464
2019-05-20T07:18:57.043Z,70752
2019-05-20T07:19:57.012Z,65952
2019-05-20T07:20:57.022Z,66528
2019-05-20T07:21:56.833Z,68512
2019-05-20T07:23:03.310Z,64000
2019-05-20T07:23:59.526Z,58880
2019-05-20T07:24:57.104Z,59008
2019-05-20T07:25:57.099Z,64000
2019-05-20T07:26:57.089Z,67840
2019-05-20T07:27:57.114Z,63424
2019-05-20T07:28:57.135Z,49216
2019-05-20T07:29:57.128Z,36512
2019-05-20T07:30:57.146Z,34304
2019-05-20T07:31:57.174Z,39744
2019-05-20T07:32:57.235Z,42880
2019-05-20T07:33:57.182Z,46720
2019-05-20T07:34:57.202Z,45792
2019-05-20T07:35:57.212Z,47584
2019-05-20T07:37:10.233Z,47328
2019-05-20T07:37:57.241Z,47712
2019-05-20T07:38:57.253Z,49696
2019-05-20T07:39:57.054Z,51648
2019-05-20T07:40:57.271Z,51008
2019-05-20T07:41:57.286Z,51680
2019-05-20T07:42:57.079Z,55936
2019-05-20T07:43:57.077Z,61632
2019-05-20T07:44:57.339Z,68864
2019-05-20T07:45:57.087Z,66720
2019-05-20T07:46:57.379Z,55424
2019-05-20T07:47:57.358Z,48704
2019-05-20T07:48:57.593Z,51712
2019-05-20T07:49:57.387Z,56416
2019-05-20T07:50:57.166Z,59968
2019-05-20T07:51:57.452Z,63072
2019-05-20T07:53:00.410Z,63968
2019-05-20T07:53:57.572Z,66912
2019-05-20T07:54:57.449Z,73152
2019-05-20T07:55:57.219Z,76064
2019-05-20T07:56:57.489Z,75424
2019-05-20T07:57:57.496Z,75936
2019-05-20T07:58:57.515Z,66176
2019-05-20T07:59:57.516Z,77280
2019-05-20T08:00:57.390Z,77472
2019-05-20T08:01:57.549Z,83296
2019-05-20T08:02:57.570Z,88928
2019-05-20T08:03:57.570Z,94080
2019-05-20T08:04:57.522Z,98816
2019-05-20T08:05:57.110Z,103232
2019-05-20T08:06:57.636Z,106784
2019-05-20T08:07:59.674Z,112512
2019-05-20T08:08:57.423Z,113120
2019-05-20T08:09:57.683Z,96960
2019-05-20T08:10:57.684Z,89856
2019-05-20T08:11:57.684Z,78528
2019-05-20T08:12:57.729Z,65600
2019-05-20T08:13:57.720Z,68768
2019-05-20T08:14:57.765Z,75360
2019-05-20T08:15:57.507Z,68768
2019-05-20T08:16:57.575Z,66624
2019-05-20T08:17:58.866Z,60800
2019-05-20T08:18:57.929Z,62912
2019-05-20T08:19:57.799Z,65312
2019-05-20T08:20:57.822Z,75456
2019-05-20T08:21:57.870Z,75776
2019-05-20T08:22:57.847Z,75456
2019-05-20T08:23:57.859Z,69856
2019-05-20T08:24:57.675Z,71008
2019-05-20T08:25:57.867Z,70848
2019-05-20T08:26:58.124Z,78080
2019-05-20T08:27:57.894Z,78720
2019-05-20T08:28:58.123Z,76960
2019-05-20T08:29:57.924Z,71136
2019-05-20T08:30:58.369Z,65888
2019-05-20T08:31:57.960Z,69152
2019-05-20T08:32:57.955Z,78592
2019-05-20T08:33:58.395Z,85344
2019-05-20T08:34:58.017Z,88768
2019-05-20T08:35:58.012Z,86432
2019-05-20T08:36:58.017Z,79424
2019-05-20T08:37:58.022Z,77792
2019-05-20T08:38:58.027Z,81824
2019-05-20T08:39:58.037Z,80224
2019-05-20T08:40:58.063Z,71168
2019-05-20T08:41:58.127Z,62016
2019-05-20T08:42:57.828Z,59232
2019-05-20T08:43:58.130Z,69792
2019-05-20T08:44:58.124Z,82240
2019-05-20T08:45:58.171Z,76000
2019-05-20T08:46:58.121Z,39968
2019-05-20T08:47:58.186Z,12752
2019-05-20T08:48:58.142Z,12492
2019-05-20T08:49:58.631Z,12600
2019-05-20T08:50:58.164Z,12512
2019-05-20T08:51:58.195Z,12664
2019-05-20T08:52:58.193Z,12920
2019-05-20T08:53:57.981Z,13304
2019-05-20T08:54:58.220Z,13500
2019-05-20T08:55:58.135Z,13600
2019-05-20T08:57:58.085Z,13940
2019-05-20T08:58:58.221Z,14296
2019-05-20T08:59:58.246Z,14596
2019-05-20T09:00:58.297Z,15352
2019-05-20T09:01:58.242Z,15604
2019-05-20T09:03:12.260Z,17600
2019-05-20T09:03:58.264Z,19168
2019-05-20T09:04:58.330Z,20704
2019-05-20T09:05:58.049Z,21632
2019-05-20T09:06:58.373Z,21792
2019-05-20T09:08:10.152Z,21440
2019-05-20T09:08:58.285Z,21824
2019-05-20T09:09:58.308Z,22592
2019-05-20T09:10:58.243Z,23328
2019-05-20T09:11:58.297Z,23488
2019-05-20T09:12:58.296Z,24096
2019-05-20T09:13:58.318Z,24416
2019-05-20T09:14:58.320Z,25056
2019-05-20T09:15:58.306Z,26432
2019-05-20T09:16:58.070Z,26816
2019-05-20T09:17:58.380Z,27232
2019-05-20T09:18:58.348Z,27264
2019-05-20T09:19:58.343Z,26592
2019-05-20T09:20:58.354Z,26624
2019-05-20T09:21:58.343Z,26560
2019-05-20T09:23:01.908Z,25536
2019-05-20T09:23:58.335Z,23904
2019-05-20T09:24:58.997Z,22848
2019-05-20T09:25:58.348Z,22080
2019-05-20T09:26:58.432Z,20768
2019-05-20T09:27:58.373Z,20384
2019-05-20T09:28:58.357Z,20064
2019-05-20T09:29:58.388Z,19552
2019-05-20T09:30:58.384Z,19232
2019-05-20T09:31:58.389Z,19040
2019-05-20T09:32:58.424Z,19392
2019-05-20T09:33:58.430Z,19456
2019-05-20T09:34:58.430Z,19456
2019-05-20T09:35:58.384Z,19552
2019-05-20T09:36:58.157Z,19968
2019-05-20T09:37:58.406Z,20192
2019-05-20T09:38:58.603Z,19872
2019-05-20T09:39:58.428Z,19232
2019-05-20T09:40:58.566Z,18368
2019-05-20T09:41:58.469Z,18144
2019-05-20T09:42:58.510Z,17088
2019-05-20T09:43:58.427Z,17408
2019-05-20T09:45:02.051Z,16640
2019-05-20T09:46:13.485Z,16220
2019-05-20T09:46:58.424Z,16212
2019-05-20T09:47:58.476Z,17344
2019-05-20T09:48:58.472Z,17696
2019-05-20T09:49:58.440Z,18080
2019-05-20T09:50:58.454Z,18400
2019-05-20T09:51:58.209Z,18880
2019-05-20T09:52:58.438Z,18688
2019-05-20T09:53:58.466Z,18752
2019-05-20T09:54:58.453Z,19744
2019-05-20T09:55:58.453Z,20608
2019-05-20T09:56:58.465Z,20512
2019-05-20T09:57:58.456Z,19968
2019-05-20T09:58:58.215Z,19584
2019-05-20T09:59:58.462Z,20192
2019-05-20T10:00:58.245Z,21248
2019-05-20T10:01:58.610Z,21408
2019-05-20T10:02:58.486Z,21664
2019-05-20T10:03:58.480Z,22240
2019-05-20T10:04:58.284Z,22336
2019-05-20T10:05:58.508Z,22176
2019-05-20T10:06:58.624Z,21120
2019-05-20T10:07:58.510Z,20064
2019-05-20T10:08:58.507Z,19616
2019-05-20T10:09:58.497Z,19488
2019-05-20T10:11:02.035Z,19104
2019-05-20T10:11:58.505Z,18976
2019-05-20T10:12:58.347Z,18656
2019-05-20T10:13:58.514Z,18496
2019-05-20T10:15:00.029Z,17664
2019-05-20T10:15:58.681Z,16676
2019-05-20T10:16:58.558Z,16064
2019-05-20T10:17:58.607Z,15620
2019-05-20T10:19:02.618Z,15392
2019-05-20T10:19:58.637Z,15420
2019-05-20T10:20:58.679Z,15388
2019-05-20T10:21:58.596Z,15612
2019-05-20T10:22:58.412Z,15940
2019-05-20T10:23:58.672Z,15888
2019-05-20T10:24:58.568Z,15688
2019-05-20T10:25:58.369Z,15288
2019-05-20T10:26:58.611Z,14936
2019-05-20T10:28:02.429Z,14572
2019-05-20T10:28:58.606Z,14412
2019-05-20T10:29:58.571Z,14392
2019-05-20T10:30:58.663Z,14432
2019-05-20T10:31:58.587Z,14404
2019-05-20T10:32:58.385Z,14400
2019-05-20T10:33:58.704Z,14692
2019-05-20T10:34:58.617Z,15120
2019-05-20T10:35:58.636Z,16000
2019-05-20T10:36:58.592Z,17088
2019-05-20T10:37:58.627Z,18240
2019-05-20T10:39:10.196Z,19424
2019-05-20T10:39:58.602Z,20000
2019-05-20T10:40:58.737Z,20864
2019-05-20T10:41:58.619Z,21920
2019-05-20T10:42:58.422Z,23008
2019-05-20T10:43:58.377Z,23424
2019-05-20T10:44:58.391Z,23328
2019-05-20T10:45:58.663Z,23136
2019-05-20T10:46:58.651Z,23264
2019-05-20T10:47:58.392Z,23808
2019-05-20T10:48:58.675Z,24864
2019-05-20T10:49:58.795Z,25888
2019-05-20T10:50:58.720Z,26432
2019-05-20T10:51:58.660Z,26624
2019-05-20T10:52:58.737Z,26272
2019-05-20T10:53:58.426Z,24832
2019-05-20T10:54:58.681Z,22784
2019-05-20T10:55:59.137Z,21472
2019-05-20T10:57:02.022Z,20896
2019-05-20T10:57:58.694Z,20480
2019-05-20T10:58:58.768Z,20512
2019-05-20T10:59:58.704Z,21024
2019-05-20T11:01:10.186Z,21472
2019-05-20T11:01:58.793Z,21600
2019-05-20T11:02:58.699Z,21408
2019-05-20T11:03:58.714Z,21024
2019-05-20T11:04:58.761Z,20544
2019-05-20T11:05:58.748Z,20000
2019-05-20T11:06:58.726Z,19456
2019-05-20T11:07:59.280Z,19264
2019-05-20T11:09:13.005Z,19488
2019-05-20T11:09:58.509Z,20064
2019-05-20T11:10:58.861Z,20768
2019-05-20T11:11:58.725Z,21472
2019-05-20T11:12:58.730Z,22336
2019-05-20T11:13:58.737Z,23488
2019-05-20T11:14:58.757Z,24672
2019-05-20T11:15:58.804Z,25568
2019-05-20T11:16:58.763Z,25888
2019-05-20T11:17:58.510Z,25472
2019-05-20T11:18:58.752Z,24960
2019-05-20T11:19:58.766Z,24928
2019-05-20T11:20:58.821Z,25216
2019-05-20T11:21:59.108Z,25728
2019-05-20T11:23:02.707Z,26208
2019-05-20T11:23:58.783Z,26464
2019-05-20T11:24:58.798Z,26816
2019-05-20T11:25:58.558Z,26976
2019-05-20T11:26:58.792Z,26944
2019-05-20T11:27:58.797Z,26464
2019-05-20T11:28:58.810Z,25664
2019-05-20T11:29:59.016Z,25088
2019-05-20T11:30:58.830Z,24864
2019-05-20T11:31:58.830Z,24864
2019-05-20T11:32:58.852Z,24864
2019-05-20T11:34:02.397Z,24832
2019-05-20T11:34:58.829Z,24640
2019-05-20T11:35:58.821Z,24448
2019-05-20T11:36:59.101Z,24896
2019-05-20T11:37:58.847Z,25728
2019-05-20T11:38:58.836Z,26624
2019-05-20T11:39:58.860Z,27200
2019-05-20T11:40:58.849Z,27744
2019-05-20T11:42:01.338Z,27936
2019-05-20T11:42:58.851Z,27776
2019-05-20T11:43:58.941Z,27200
2019-05-20T11:44:58.664Z,26144
2019-05-20T11:45:58.875Z,25024
2019-05-20T11:46:58.875Z,23808
2019-05-20T11:47:58.916Z,22944
2019-05-20T11:48:58.921Z,22336
2019-05-20T11:49:58.905Z,21856
2019-05-20T11:50:58.991Z,21376
2019-05-20T11:51:58.897Z,21216
2019-05-20T11:52:59.015Z,21728
2019-05-20T11:53:58.901Z,22528
2019-05-20T11:54:58.913Z,23008
2019-05-20T11:55:58.909Z,23392
2019-05-20T11:56:58.930Z,23264
2019-05-20T11:58:14.379Z,23424
2019-05-20T11:58:58.923Z,23872
2019-05-20T11:59:58.744Z,24448
2019-05-20T12:00:58.716Z,25024
2019-05-20T12:01:58.982Z,25344
2019-05-20T12:02:58.994Z,25408
2019-05-20T12:03:58.954Z,25280
2019-05-20T12:04:58.997Z,25152
2019-05-20T12:05:59.113Z,25056
2019-05-20T12:06:58.959Z,24480
2019-05-20T12:07:58.971Z,23232
2019-05-20T12:08:58.968Z,22016
2019-05-20T12:09:58.992Z,21120
2019-05-20T12:10:59.006Z,20832
2019-05-20T12:11:59.131Z,20832
2019-05-20T12:12:59.131Z,20896
2019-05-20T12:13:58.985Z,21344
2019-05-20T12:14:59.003Z,21952
2019-05-20T12:15:58.994Z,22496
2019-05-20T12:16:58.760Z,22720
2019-05-20T12:17:59.011Z,22944
2019-05-20T12:18:59.023Z,22944
2019-05-20T12:19:59.012Z,22880
2019-05-20T12:20:59.036Z,22752
2019-05-20T12:21:59.085Z,22752
2019-05-20T12:22:59.024Z,22976
2019-05-20T12:23:59.076Z,23008
2019-05-20T12:24:58.871Z,23040
2019-05-20T12:25:59.059Z,23072
2019-05-20T12:26:59.045Z,22976
2019-05-20T12:27:59.084Z,22784
2019-05-20T12:28:59.067Z,22464
2019-05-20T12:29:59.124Z,22240
2019-05-20T12:30:59.042Z,22048
2019-05-20T12:32:03.136Z,21888
2019-05-20T12:33:24.757Z,21696
2019-05-20T12:33:58.810Z,21568
2019-05-20T12:34:59.082Z,21504
2019-05-20T12:35:59.080Z,21632
2019-05-20T12:36:59.101Z,21664
2019-05-20T12:37:59.108Z,21120
2019-05-20T12:38:59.106Z,20160
2019-05-20T12:40:13.808Z,19136
2019-05-20T12:40:59.079Z,18752
2019-05-20T12:41:59.186Z,18656
2019-05-20T12:42:59.111Z,18656
2019-05-20T12:44:18.127Z,18912
2019-05-20T12:44:59.094Z,18784
2019-05-20T12:45:59.139Z,17952
2019-05-20T12:46:59.181Z,16416
2019-05-20T12:47:59.120Z,14792
2019-05-20T12:48:59.818Z,13464
2019-05-20T12:49:59.139Z,12220
2019-05-20T12:50:59.132Z,11104
2019-05-20T12:51:59.142Z,10268
2019-05-20T12:52:58.903Z,9708
2019-05-20T12:53:59.135Z,9376
2019-05-20T12:55:15.133Z,9272
2019-05-20T12:55:59.133Z,9464
2019-05-20T12:56:59.228Z,9460
2019-05-20T12:57:59.141Z,9152
2019-05-20T12:58:59.173Z,8572
2019-05-20T12:59:59.167Z,7808
2019-05-20T13:00:59.161Z,7092
2019-05-20T13:01:59.184Z,6944
2019-05-20T13:02:59.185Z,7312
2019-05-20T13:03:59.158Z,7872
2019-05-20T13:04:59.155Z,8400
2019-05-20T13:05:59.184Z,8772
2019-05-20T13:06:58.929Z,8936
2019-05-20T13:07:59.164Z,8816
2019-05-20T13:08:59.162Z,8512
2019-05-20T13:10:02.685Z,7916
2019-05-20T13:10:59.181Z,7000
2019-05-20T13:11:59.164Z,6048
2019-05-20T13:12:59.165Z,5212
2019-05-20T13:13:59.182Z,4624
2019-05-20T13:14:59.205Z,4216
2019-05-20T13:15:59.158Z,3924
2019-05-20T13:16:59.159Z,3868
2019-05-20T13:17:58.924Z,3896
2019-05-20T13:19:03.366Z,3964
2019-05-20T13:19:59.154Z,3992
2019-05-20T13:20:59.303Z,4056
2019-05-20T13:21:59.228Z,4168
2019-05-20T13:22:59.165Z,4432
2019-05-20T13:24:00.277Z,4724
2019-05-20T13:24:59.166Z,4932
2019-05-20T13:25:59.158Z,4952
2019-05-20T13:26:59.157Z,4852
2019-05-20T13:27:59.175Z,4788
2019-05-20T13:29:03.906Z,4736
2019-05-20T13:29:59.262Z,4624
2019-05-20T13:30:59.160Z,4480
2019-05-20T13:31:59.153Z,4340
2019-05-20T13:32:59.160Z,4080
2019-05-20T13:33:59.157Z,3548
2019-05-20T13:34:59.152Z,3040
2019-05-20T13:35:59.148Z,2752
2019-05-20T13:36:59.160Z,2660
2019-05-20T13:38:01.696Z,2632
2019-05-20T13:38:59.149Z,2568
2019-05-20T13:40:02.816Z,2436
2019-05-20T13:40:59.152Z,2276
2019-05-20T13:41:59.152Z,2152
2019-05-20T13:42:59.164Z,2060
2019-05-20T13:43:59.158Z,1992
2019-05-20T13:44:59.150Z,2008
2019-05-20T13:45:59.199Z,2088
2019-05-20T13:46:58.917Z,2176
2019-05-20T13:47:59.148Z,2252
2019-05-20T13:48:59.155Z,2328
2019-05-20T13:49:59.156Z,2360
2019-05-20T13:50:59.165Z,2292
2019-05-20T13:51:59.150Z,2140
2019-05-20T13:52:59.170Z,1992
2019-05-20T13:53:59.158Z,1824
2019-05-20T13:54:59.146Z,1688
2019-05-20T13:55:59.136Z,1612
2019-05-20T13:56:59.148Z,1552
2019-05-20T13:57:59.141Z,1520
2019-05-20T13:58:59.147Z,1496
2019-05-20T13:59:58.976Z,1428
2019-05-20T14:00:59.189Z,1360
2019-05-20T14:01:59.204Z,1304
2019-05-20T14:02:59.138Z,1284
2019-05-20T14:04:01.803Z,1276
2019-05-20T14:04:59.188Z,1228
2019-05-20T14:05:59.132Z,1172
2019-05-20T14:06:59.137Z,1060
2019-05-20T14:07:58.882Z,1004
2019-05-20T14:08:59.146Z,980
2019-05-20T14:09:59.153Z,964
2019-05-20T14:11:11.490Z,984
2019-05-20T14:11:59.116Z,1040
2019-05-20T14:12:58.878Z,1144
2019-05-20T14:13:59.122Z,1128
2019-05-20T14:14:59.120Z,936
2019-05-20T14:15:59.129Z,752
2019-05-20T14:16:59.170Z,640
2019-05-20T14:17:59.436Z,604
2019-05-20T14:18:59.130Z,656
2019-05-20T14:19:59.129Z,784
2019-05-20T14:20:59.106Z,960
2019-05-20T14:21:59.105Z,1052
2019-05-20T14:22:59.101Z,1040
2019-05-20T14:24:13.778Z,852
2019-05-20T14:24:59.309Z,672
2019-05-20T14:25:59.121Z,416
2019-05-20T14:26:59.312Z,264
2019-05-20T14:27:59.090Z,204
2019-05-20T14:28:59.238Z,176
2019-05-20T14:29:59.077Z,156
2019-05-20T14:31:13.332Z,144